createdAt,value
2023-01-19T00:00:54.476Z,17.20
2023-01-19T00:03:21.824Z,15.60
2023-01-19T00:05:50.003Z,16.70
2023-01-19T00:08:18.173Z,15.50
2023-01-19T00:10:47.157Z,15.70
2023-01-19T00:13:14.507Z,15.60
2023-01-19T00:15:41.554Z,15.50
2023-01-19T00:18:10.563Z,14.10
2023-01-19T00:20:39.550Z,14.70
2023-01-19T00:23:09.597Z,14.00
2023-01-19T00:25:41.750Z,13.80
2023-01-19T00:28:12.708Z,14.10
2023-01-19T00:30:42.884Z,14.90
2023-01-19T00:33:10.791Z,15.20
2023-01-19T00:35:38.307Z,15.00
2023-01-19T00:38:10.125Z,14.60
2023-01-19T00:40:37.417Z,12.90
2023-01-19T00:43:04.850Z,15.90
2023-01-19T00:45:32.680Z,14.20
2023-01-19T00:47:59.908Z,13.40
2023-01-19T00:50:27.768Z,14.10
2023-01-19T00:52:55.271Z,12.40
2023-01-19T00:55:22.713Z,14.10
2023-01-19T00:57:50.029Z,15.00
2023-01-19T01:00:20.526Z,14.00
2023-01-19T01:02:49.283Z,14.60
2023-01-19T01:05:17.627Z,14.10
2023-01-19T01:07:49.073Z,14.30
2023-01-19T01:10:20.089Z,13.30
2023-01-19T01:12:57.411Z,13.30
2023-01-19T01:15:26.905Z,14.30
2023-01-19T01:17:54.526Z,13.80
2023-01-19T01:20:23.744Z,14.50
2023-01-19T01:30:41.346Z,13.30
2023-01-19T01:33:08.749Z,15.20
2023-01-19T01:35:35.738Z,13.70
2023-01-19T01:38:03.119Z,13.60
2023-01-19T01:40:30.460Z,13.20
2023-01-19T01:42:57.904Z,14.10
2023-01-19T01:45:31.394Z,13.70
2023-01-19T01:48:02.239Z,12.70
2023-01-19T01:50:30.531Z,12.70
2023-01-19T01:53:07.149Z,13.60
2023-01-19T01:55:44.418Z,13.60
2023-01-19T01:58:11.668Z,13.50
2023-01-19T02:00:57.438Z,13.10
2023-01-19T02:03:24.925Z,12.90
2023-01-19T02:05:52.552Z,14.10
2023-01-19T02:08:40.791Z,13.70
2023-01-19T02:11:26.893Z,13.60
2023-01-19T02:13:54.041Z,14.40
2023-01-19T02:16:21.142Z,13.60
2023-01-19T02:18:48.439Z,12.70
2023-01-19T02:21:52.411Z,13.10
2023-01-19T02:24:19.741Z,12.80
2023-01-19T02:26:47.619Z,13.00
2023-01-19T02:29:19.128Z,12.30
2023-01-19T02:34:17.323Z,12.70
2023-01-19T02:36:44.471Z,13.60
2023-01-19T02:39:11.618Z,13.70
2023-01-19T02:41:43.523Z,13.00
2023-01-19T02:44:10.660Z,12.70
2023-01-19T02:46:38.498Z,11.80
2023-01-19T02:49:05.547Z,12.20
2023-01-19T02:51:32.746Z,13.10
2023-01-19T02:54:22.472Z,12.20
2023-01-19T02:56:49.623Z,13.50
2023-01-19T02:59:37.915Z,13.90
2023-01-19T03:02:27.115Z,12.80
2023-01-19T03:05:45.793Z,12.20
2023-01-19T03:08:55.132Z,13.40
2023-01-19T03:11:22.205Z,13.00
2023-01-19T03:14:04.890Z,12.80
2023-01-19T03:16:38.109Z,12.10
2023-01-19T03:19:31.767Z,12.90
2023-01-19T03:22:01.985Z,13.70
2023-01-19T03:24:29.953Z,13.00
2023-01-19T03:27:00.425Z,12.50
2023-01-19T03:29:28.989Z,12.70
2023-01-19T03:31:56.742Z,11.90
2023-01-19T03:34:24.282Z,13.40
2023-01-19T03:36:54.144Z,12.80
2023-01-19T03:39:25.345Z,12.30
2023-01-19T03:41:54.296Z,13.30
2023-01-19T03:44:21.546Z,13.40
2023-01-19T03:46:50.700Z,13.40
2023-01-19T03:49:17.880Z,13.70
2023-01-19T03:51:44.989Z,13.20
2023-01-19T03:54:12.177Z,12.30
2023-01-19T03:56:39.301Z,12.90
2023-01-19T03:59:07.812Z,13.40
2023-01-19T04:01:36.103Z,12.30
2023-01-19T04:04:03.221Z,12.80
2023-01-19T04:06:30.345Z,12.70
2023-01-19T04:08:57.491Z,12.20
2023-01-19T04:11:24.652Z,12.50
2023-01-19T04:13:51.894Z,13.00
2023-01-19T04:16:21.491Z,12.50
2023-01-19T04:18:48.876Z,13.10
2023-01-19T04:21:16.111Z,12.80
2023-01-19T04:23:44.619Z,13.30
2023-01-19T04:26:11.706Z,12.80
2023-01-19T04:28:38.932Z,12.70
2023-01-19T04:31:06.678Z,13.00
2023-01-19T04:33:33.969Z,13.50
2023-01-19T04:36:01.162Z,13.80
2023-01-19T04:38:28.419Z,12.80
2023-01-19T04:40:55.960Z,13.90
2023-01-19T04:43:23.845Z,12.50
2023-01-19T04:45:51.294Z,12.30
2023-01-19T04:48:18.673Z,12.90
2023-01-19T04:50:46.317Z,12.00
2023-01-19T04:53:13.981Z,12.90
2023-01-19T04:55:41.352Z,12.10
2023-01-19T04:58:08.346Z,11.40
2023-01-19T05:00:35.793Z,13.50
2023-01-19T05:03:03.388Z,13.20
2023-01-19T05:05:30.856Z,13.40
2023-01-19T05:07:58.003Z,12.80
2023-01-19T05:10:25.574Z,13.50
2023-01-19T05:12:52.815Z,13.50
2023-01-19T05:15:19.972Z,14.60
2023-01-19T05:17:47.122Z,13.80
2023-01-19T05:20:16.406Z,13.10
2023-01-19T05:22:48.860Z,14.60
2023-01-19T05:25:16.215Z,14.50
2023-01-19T05:27:43.498Z,14.40
2023-01-19T05:30:12.044Z,13.10
2023-01-19T05:32:39.822Z,13.60
2023-01-19T05:35:07.815Z,14.20
2023-01-19T05:37:34.966Z,14.00
2023-01-19T05:40:02.212Z,15.30
2023-01-19T05:42:30.832Z,14.50
2023-01-19T05:44:59.796Z,14.80
2023-01-19T05:47:26.950Z,13.50
2023-01-19T05:49:54.095Z,13.40
2023-01-19T05:52:22.079Z,14.20
2023-01-19T05:54:49.228Z,14.80
2023-01-19T05:57:16.384Z,14.30
2023-01-19T05:59:43.626Z,14.80
2023-01-19T06:02:10.882Z,15.90
2023-01-19T06:04:38.057Z,15.70
2023-01-19T06:07:07.070Z,15.80
2023-01-19T06:09:34.173Z,15.70
2023-01-19T06:12:01.646Z,16.20
2023-01-19T06:14:28.702Z,14.80
2023-01-19T06:16:56.030Z,15.10
2023-01-19T06:19:23.104Z,15.40
2023-01-19T06:21:52.518Z,16.00
2023-01-19T06:24:19.976Z,16.20
2023-01-19T06:26:47.156Z,16.10
2023-01-19T06:29:14.897Z,14.90
2023-01-19T06:31:42.638Z,15.20
2023-01-19T06:34:09.862Z,14.20
2023-01-19T06:36:37.117Z,15.10
2023-01-19T06:39:06.152Z,15.50
2023-01-19T06:41:33.986Z,14.80
2023-01-19T06:44:01.536Z,16.50
2023-01-19T06:46:29.200Z,16.10
2023-01-19T06:48:56.451Z,14.50
2023-01-19T06:51:24.123Z,14.70
2023-01-19T06:53:51.273Z,14.40
2023-01-19T06:56:18.512Z,15.70
2023-01-19T06:58:50.797Z,15.10
2023-01-19T07:01:18.031Z,13.80
2023-01-19T07:03:46.870Z,14.30
2023-01-19T07:06:15.104Z,14.10
2023-01-19T07:08:42.212Z,13.90
2023-01-19T07:11:26.218Z,15.30
2023-01-19T07:13:58.718Z,13.80
2023-01-19T07:16:26.105Z,13.00
2023-01-19T07:18:53.328Z,13.80
2023-01-19T07:21:20.736Z,14.60
2023-01-19T07:23:51.786Z,13.40
2023-01-19T07:26:21.646Z,15.00
2023-01-19T07:28:49.194Z,13.40
2023-01-19T07:31:16.541Z,12.70
2023-01-19T07:33:44.020Z,14.30
2023-01-19T07:36:11.289Z,15.60
2023-01-19T07:38:39.230Z,14.00
2023-01-19T07:41:08.073Z,13.80
2023-01-19T07:43:35.238Z,13.40
2023-01-19T07:46:05.318Z,14.30
2023-01-19T07:48:32.573Z,14.60
2023-01-19T07:51:11.045Z,15.00
2023-01-19T07:53:40.324Z,13.70
2023-01-19T07:56:08.024Z,13.40
2023-01-19T07:58:35.157Z,14.30
2023-01-19T08:01:09.452Z,15.00
2023-01-19T08:03:36.905Z,16.30
2023-01-19T08:06:05.687Z,15.20
2023-01-19T08:08:33.470Z,14.70
2023-01-19T08:11:00.707Z,14.40
2023-01-19T08:13:28.116Z,15.90
2023-01-19T08:15:55.245Z,15.40
2023-01-19T08:18:22.323Z,13.90
2023-01-19T08:20:49.527Z,15.20
2023-01-19T08:23:18.366Z,14.50
2023-01-19T08:25:46.209Z,13.60
2023-01-19T08:28:15.301Z,12.70
2023-01-19T08:30:44.511Z,14.90
2023-01-19T08:33:12.648Z,14.60
2023-01-19T08:35:49.124Z,15.60
2023-01-19T08:38:17.278Z,13.90
2023-01-19T08:40:44.637Z,15.00
2023-01-19T08:43:13.634Z,14.20
2023-01-19T08:45:42.661Z,13.70
2023-01-19T08:48:10.504Z,13.40
2023-01-19T08:50:37.631Z,13.70
2023-01-19T08:53:07.655Z,15.00
2023-01-19T08:55:35.833Z,12.10
2023-01-19T08:58:06.610Z,13.10
2023-01-19T09:00:34.563Z,13.00
2023-01-19T09:03:03.589Z,16.20
2023-01-19T09:05:37.263Z,14.60
2023-01-19T09:08:06.279Z,15.80
2023-01-19T09:10:36.195Z,13.00
2023-01-19T09:13:05.331Z,14.40
2023-01-19T09:15:34.284Z,14.00
2023-01-19T09:18:02.642Z,13.80
2023-01-19T09:20:31.403Z,12.80
2023-01-19T09:22:58.642Z,12.80
2023-01-19T09:25:25.794Z,13.60
2023-01-19T09:27:53.313Z,12.30
2023-01-19T09:30:20.497Z,11.20
2023-01-19T09:32:47.572Z,12.70
2023-01-19T09:35:15.315Z,12.60
2023-01-19T09:37:46.469Z,12.40
2023-01-19T09:40:14.123Z,12.50
2023-01-19T09:42:43.801Z,12.20
2023-01-19T09:45:16.987Z,11.30
2023-01-19T09:47:44.127Z,12.20
2023-01-19T09:50:25.969Z,12.30
2023-01-19T09:53:07.514Z,11.50
2023-01-19T09:55:34.605Z,11.40
2023-01-19T09:58:02.202Z,11.40
2023-01-19T10:00:29.643Z,11.20
2023-01-19T10:03:27.793Z,11.50
2023-01-19T10:05:56.310Z,13.00
2023-01-19T10:08:47.898Z,12.80
2023-01-19T10:11:52.653Z,11.70
2023-01-19T10:14:40.415Z,11.80
2023-01-19T10:17:22.163Z,10.70
2023-01-19T10:22:24.676Z,11.70
2023-01-19T10:25:02.385Z,12.00
2023-01-19T10:27:34.213Z,11.00
2023-01-19T10:30:01.793Z,12.90
2023-01-19T10:32:34.268Z,12.40
2023-01-19T10:35:01.487Z,11.60
2023-01-19T10:37:38.268Z,11.30
2023-01-19T10:40:11.912Z,12.20
2023-01-19T10:42:40.465Z,11.90
2023-01-19T10:45:21.263Z,12.40
2023-01-19T10:47:48.925Z,11.60
2023-01-19T10:50:25.338Z,12.30
2023-01-19T10:52:54.256Z,11.40
2023-01-19T10:55:25.888Z,11.90
2023-01-19T11:00:31.741Z,12.00
2023-01-19T11:02:59.341Z,12.50
2023-01-19T11:05:28.805Z,13.40
2023-01-19T11:07:56.920Z,12.10
2023-01-19T11:10:26.010Z,13.70
2023-01-19T11:12:56.032Z,13.60
2023-01-19T11:15:29.532Z,14.00
2023-01-19T11:17:56.579Z,14.20
2023-01-19T11:20:26.013Z,13.80
2023-01-19T11:23:05.750Z,13.80
2023-01-19T11:25:34.413Z,13.20
2023-01-19T11:28:01.584Z,12.90
2023-01-19T11:30:28.702Z,13.90
2023-01-19T11:32:56.640Z,14.30
2023-01-19T11:35:38.305Z,14.10
2023-01-19T11:41:06.924Z,14.20
2023-01-19T11:43:48.268Z,15.00
2023-01-19T11:46:16.522Z,16.80
2023-01-19T11:49:03.654Z,15.60
2023-01-19T11:51:47.586Z,22.00
2023-01-19T11:54:20.132Z,15.90
2023-01-19T11:56:48.130Z,15.80
2023-01-19T11:59:15.187Z,16.60
2023-01-19T12:01:46.824Z,15.60
2023-01-19T12:06:45.026Z,15.60
2023-01-19T12:09:23.770Z,15.80
2023-01-19T12:12:26.287Z,17.70
2023-01-19T12:15:01.963Z,17.20
2023-01-19T12:17:49.077Z,14.50
2023-01-19T12:20:19.323Z,14.00
2023-01-19T12:22:50.846Z,14.50
2023-01-19T12:25:53.943Z,16.00
2023-01-19T12:28:26.338Z,19.50
2023-01-19T12:30:53.872Z,18.10
2023-01-19T12:33:34.209Z,16.20
2023-01-19T12:36:05.321Z,16.70
2023-01-19T12:38:54.953Z,15.00
2023-01-19T12:41:23.172Z,14.80
2023-01-19T12:44:10.581Z,15.70
2023-01-19T12:46:38.953Z,16.90
2023-01-19T12:49:29.142Z,15.80
2023-01-19T12:52:13.734Z,17.40
2023-01-19T12:54:43.056Z,17.90
2023-01-19T12:57:28.397Z,18.70
2023-01-19T13:00:00.686Z,17.20
2023-01-19T13:02:28.299Z,15.30
2023-01-19T13:05:33.599Z,14.50
2023-01-19T13:08:07.060Z,14.70
2023-01-19T13:11:12.571Z,13.80
2023-01-19T13:13:49.077Z,16.90
2023-01-19T13:16:20.735Z,14.10
2023-01-19T13:19:06.865Z,13.70
2023-01-19T13:21:44.689Z,15.90
2023-01-19T13:24:16.629Z,14.80
2023-01-19T13:26:57.988Z,16.40
2023-01-19T13:29:34.177Z,18.40
2023-01-19T13:32:06.159Z,22.60
2023-01-19T13:34:40.515Z,17.10
2023-01-19T13:37:09.405Z,16.50
2023-01-19T13:39:38.106Z,20.10
2023-01-19T13:42:33.041Z,19.80
2023-01-19T13:45:01.345Z,21.00
2023-01-19T13:47:44.018Z,22.20
2023-01-19T13:50:27.172Z,20.00
2023-01-19T13:52:55.873Z,21.00
2023-01-19T13:55:23.765Z,20.50
2023-01-19T13:57:51.631Z,20.60
2023-01-19T14:00:38.748Z,21.10
2023-01-19T14:03:15.383Z,23.00
2023-01-19T14:05:43.523Z,24.80
2023-01-19T14:08:13.782Z,31.80
2023-01-19T14:11:02.534Z,24.20
2023-01-19T14:13:34.266Z,21.20
2023-01-19T14:16:17.127Z,23.30
2023-01-19T14:18:44.234Z,23.90
2023-01-19T14:21:14.863Z,23.60
2023-01-19T14:23:49.975Z,21.90
2023-01-19T14:26:40.156Z,23.20
2023-01-19T14:29:10.634Z,23.80
2023-01-19T14:31:52.889Z,22.90
2023-01-19T14:34:42.975Z,24.10
2023-01-19T14:37:22.438Z,22.70
2023-01-19T14:39:55.526Z,21.70
2023-01-19T14:42:31.121Z,21.00
2023-01-19T14:45:00.257Z,20.00
2023-01-19T14:47:46.606Z,20.80
2023-01-19T14:50:34.350Z,21.30
2023-01-19T14:53:03.383Z,20.10
2023-01-19T14:55:39.930Z,18.70
2023-01-19T14:58:17.644Z,19.20
2023-01-19T15:00:45.186Z,18.20
2023-01-19T15:03:12.355Z,19.30
2023-01-19T15:05:40.138Z,20.80
2023-01-19T15:08:07.372Z,20.20
2023-01-19T15:10:35.347Z,20.40
2023-01-19T15:13:02.375Z,20.10
2023-01-19T15:15:34.043Z,19.00
2023-01-19T15:18:02.320Z,19.10
2023-01-19T15:20:29.535Z,20.60
2023-01-19T15:22:56.653Z,18.70
2023-01-19T15:25:27.172Z,21.30
2023-01-19T15:27:56.485Z,18.60
2023-01-19T15:30:29.750Z,18.10
2023-01-19T15:32:57.203Z,24.10
2023-01-19T15:35:24.355Z,19.40
2023-01-19T15:37:51.643Z,19.80
2023-01-19T15:40:19.602Z,19.40
2023-01-19T15:42:46.929Z,20.90
2023-01-19T15:45:39.768Z,20.40
2023-01-19T15:48:16.042Z,21.00
2023-01-19T15:50:44.656Z,22.20
2023-01-19T15:53:16.670Z,21.00
2023-01-19T15:55:43.964Z,20.90
2023-01-19T15:58:13.893Z,23.40
2023-01-19T16:00:41.311Z,22.50
2023-01-19T16:03:08.802Z,24.10
2023-01-19T16:05:42.808Z,22.20
2023-01-19T16:08:11.748Z,19.50
2023-01-19T16:10:39.871Z,18.10
2023-01-19T16:13:06.929Z,21.40
2023-01-19T16:15:37.639Z,20.50
2023-01-19T16:18:05.111Z,21.30
2023-01-19T16:20:32.249Z,20.00
2023-01-19T16:23:13.847Z,21.20
2023-01-19T16:25:42.016Z,22.70
2023-01-19T16:28:09.358Z,19.90
2023-01-19T16:30:36.479Z,20.70
2023-01-19T16:33:05.526Z,19.50
2023-01-19T16:35:32.651Z,20.50
2023-01-19T16:37:59.694Z,17.20
2023-01-19T16:40:26.848Z,19.20
2023-01-19T16:42:54.219Z,21.10
2023-01-19T16:45:21.356Z,20.40
2023-01-19T16:47:50.958Z,19.70
2023-01-19T16:50:18.633Z,18.20
2023-01-19T16:52:45.952Z,19.80
2023-01-19T16:55:13.136Z,19.80
2023-01-19T16:57:40.338Z,21.00
2023-01-19T17:00:12.540Z,19.80
2023-01-19T17:02:40.255Z,18.20
2023-01-19T17:05:07.983Z,19.30
2023-01-19T17:07:35.139Z,22.10
2023-01-19T17:10:02.411Z,20.20
2023-01-19T17:12:32.080Z,22.10
2023-01-19T17:14:59.448Z,21.90
2023-01-19T17:17:26.801Z,21.60
2023-01-19T17:19:53.839Z,20.50
2023-01-19T17:22:21.007Z,21.90
2023-01-19T17:24:48.458Z,25.00
2023-01-19T17:27:16.428Z,29.80
2023-01-19T17:29:43.643Z,27.10
2023-01-19T17:32:10.928Z,28.30
2023-01-19T17:34:38.382Z,26.10
2023-01-19T17:37:05.462Z,26.60
2023-01-19T17:39:32.884Z,27.00
2023-01-19T17:42:00.037Z,27.10
2023-01-19T17:44:27.188Z,25.90
2023-01-19T17:46:54.335Z,26.20
2023-01-19T17:49:21.443Z,25.80
2023-01-19T17:51:53.695Z,27.10
2023-01-19T17:54:20.947Z,25.40
2023-01-19T17:56:48.370Z,24.20
2023-01-19T17:59:15.516Z,24.80
2023-01-19T18:01:44.776Z,25.00
2023-01-19T18:04:11.920Z,25.80
2023-01-19T18:06:39.334Z,26.10
2023-01-19T18:09:07.824Z,24.60
2023-01-19T18:11:35.055Z,25.10
2023-01-19T18:14:02.409Z,24.10
2023-01-19T18:16:30.765Z,23.60
2023-01-19T18:18:58.243Z,25.00
2023-01-19T18:21:27.490Z,24.70
2023-01-19T18:24:02.434Z,23.90
2023-01-19T18:26:30.151Z,21.60
2023-01-19T18:28:57.806Z,22.20
2023-01-19T18:31:25.704Z,22.10
2023-01-19T18:33:53.433Z,21.60
2023-01-19T18:36:21.132Z,20.30
2023-01-19T18:38:49.085Z,19.90
2023-01-19T18:41:17.892Z,19.60
2023-01-19T18:43:45.368Z,16.90
2023-01-19T18:46:13.143Z,18.20
2023-01-19T18:48:40.484Z,20.80
2023-01-19T18:51:08.907Z,19.20
2023-01-19T18:53:36.349Z,20.00
2023-01-19T18:56:03.845Z,19.80
2023-01-19T18:58:31.994Z,21.10
2023-01-19T19:01:00.125Z,22.40
2023-01-19T19:03:27.529Z,20.90
2023-01-19T19:05:54.930Z,17.90
2023-01-19T19:08:22.340Z,20.30
2023-01-19T19:10:49.651Z,19.50
2023-01-19T19:13:17.569Z,19.10
2023-01-19T19:15:44.984Z,18.70
2023-01-19T19:18:14.259Z,19.20
2023-01-19T19:20:43.535Z,18.70
2023-01-19T19:23:11.386Z,19.70
2023-01-19T19:25:38.740Z,19.70
2023-01-19T19:28:05.988Z,19.80
2023-01-19T19:30:34.929Z,19.60
2023-01-19T19:33:02.772Z,18.80
2023-01-19T19:35:29.918Z,17.90
2023-01-19T19:37:58.017Z,18.00
2023-01-19T19:40:28.919Z,20.30
2023-01-19T19:42:58.608Z,20.70
2023-01-19T19:45:26.488Z,21.30
2023-01-19T19:47:53.859Z,19.20
2023-01-19T19:50:20.987Z,19.90
2023-01-19T19:52:48.074Z,19.90
2023-01-19T19:55:15.448Z,19.90
2023-01-19T19:57:42.881Z,19.10
2023-01-19T20:00:11.125Z,20.50
2023-01-19T20:02:38.814Z,18.40
2023-01-19T20:05:06.391Z,19.20
2023-01-19T20:07:33.826Z,19.80
2023-01-19T20:10:00.985Z,19.30
2023-01-19T20:12:28.131Z,17.70
2023-01-19T20:14:55.565Z,18.80
2023-01-19T20:17:23.459Z,18.20
2023-01-19T20:19:50.587Z,17.10
2023-01-19T20:22:17.776Z,17.70
2023-01-19T20:24:45.083Z,16.00
2023-01-19T20:27:12.384Z,16.90
2023-01-19T20:29:39.745Z,17.80
2023-01-19T20:32:07.352Z,17.50
2023-01-19T20:34:35.852Z,17.40
2023-01-19T20:37:04.949Z,17.10
2023-01-19T20:39:34.130Z,17.70
2023-01-19T20:42:01.766Z,17.30
2023-01-19T20:44:29.152Z,19.20
2023-01-19T20:46:56.635Z,16.90
2023-01-19T20:49:23.955Z,18.00
2023-01-19T20:51:52.373Z,16.90
2023-01-19T20:54:20.843Z,18.60
2023-01-19T20:56:48.296Z,18.10
2023-01-19T20:59:15.650Z,16.50
2023-01-19T21:01:43.103Z,17.00
2023-01-19T21:04:11.195Z,16.20
2023-01-19T21:06:38.821Z,19.10
2023-01-19T21:09:07.058Z,18.90
2023-01-19T21:11:34.383Z,18.90
2023-01-19T21:14:01.743Z,18.10
2023-01-19T21:16:30.335Z,19.90
2023-01-19T21:18:57.643Z,20.00
2023-01-19T21:21:30.833Z,20.50
2023-01-19T21:24:02.185Z,19.10
2023-01-19T21:26:33.765Z,18.90
2023-01-19T21:29:02.028Z,20.00
2023-01-19T21:31:29.399Z,21.10
2023-01-19T21:33:59.720Z,20.70
2023-01-19T21:36:27.260Z,19.90
2023-01-19T21:39:00.784Z,20.40
2023-01-19T21:41:28.666Z,19.90
2023-01-19T21:43:55.934Z,21.80
2023-01-19T21:46:29.646Z,22.70
2023-01-19T21:48:57.650Z,20.30
2023-01-19T21:51:25.104Z,19.50
2023-01-19T21:54:00.347Z,19.20
2023-01-19T21:56:28.196Z,21.30
2023-01-19T21:58:56.387Z,21.70
2023-01-19T22:02:33.257Z,19.90
2023-01-19T22:05:06.805Z,18.30
2023-01-19T22:07:33.841Z,20.40
2023-01-19T22:10:01.210Z,20.90
2023-01-19T22:12:28.465Z,20.00
2023-01-19T22:14:55.517Z,18.30
2023-01-19T22:17:22.651Z,19.10
2023-01-19T22:19:49.914Z,18.80
2023-01-19T22:22:17.053Z,20.50
2023-01-19T22:24:46.811Z,20.90
2023-01-19T22:27:14.016Z,19.50
2023-01-19T22:29:41.948Z,17.70
2023-01-19T22:32:09.039Z,19.70
2023-01-19T22:34:36.286Z,19.70
2023-01-19T22:37:03.469Z,19.70
2023-01-19T22:39:30.591Z,17.00
2023-01-19T22:41:57.849Z,18.40
2023-01-19T22:44:24.986Z,18.00
2023-01-19T22:46:54.602Z,18.70
2023-01-19T22:49:21.958Z,19.30
2023-01-19T22:51:49.129Z,17.80
2023-01-19T22:54:16.149Z,18.10
2023-01-19T22:56:43.404Z,20.50
2023-01-19T22:59:10.558Z,19.40
2023-01-19T23:01:40.712Z,20.20
2023-01-19T23:04:08.433Z,19.80
2023-01-19T23:06:36.434Z,19.40
2023-01-19T23:09:08.388Z,18.90
2023-01-19T23:11:37.192Z,19.50
2023-01-19T23:14:06.415Z,19.00
2023-01-19T23:16:34.593Z,18.50
2023-01-19T23:19:01.852Z,19.40
2023-01-19T23:21:29.832Z,19.50
2023-01-19T23:23:58.337Z,20.30
2023-01-19T23:26:25.792Z,17.80
2023-01-19T23:28:54.656Z,18.60
2023-01-19T23:31:23.711Z,20.40
2023-01-19T23:33:52.065Z,22.00
2023-01-19T23:36:19.620Z,20.70
2023-01-19T23:38:51.026Z,22.40
2023-01-19T23:41:18.959Z,20.40
2023-01-19T23:43:46.101Z,22.20
2023-01-19T23:46:13.719Z,22.90
2023-01-19T23:48:41.133Z,25.00
2023-01-19T23:51:09.685Z,25.20
2023-01-19T23:53:37.012Z,23.60
2023-01-19T23:56:12.080Z,25.30
2023-01-19T23:58:39.232Z,25.30
